sensor_id;sensor_type;location;lat;lon;timestamp;P1;durP1;ratioP1;P2;durP2;ratioP2
13981;SDS011;7065;50.880;5.502;2023-09-19T00:00:34;9.02;;;2.45;;
13981;SDS011;7065;50.880;5.502;2023-09-19T00:03:00;7.53;;;2.20;;
13981;SDS011;7065;50.880;5.502;2023-09-19T00:05:26;9.82;;;2.22;;
13981;SDS011;7065;50.880;5.502;2023-09-19T00:07:54;9.68;;;2.13;;
13981;SDS011;7065;50.880;5.502;2023-09-19T00:10:21;10.07;;;2.80;;
13981;SDS011;7065;50.880;5.502;2023-09-19T00:12:49;9.38;;;2.72;;
13981;SDS011;7065;50.880;5.502;2023-09-19T00:15:17;9.57;;;2.63;;
13981;SDS011;7065;50.880;5.502;2023-09-19T00:17:43;8.65;;;2.50;;
13981;SDS011;7065;50.880;5.502;2023-09-19T00:20:09;8.00;;;2.60;;
13981;SDS011;7065;50.880;5.502;2023-09-19T00:22:41;11.23;;;3.10;;
13981;SDS011;7065;50.880;5.502;2023-09-19T00:25:10;9.55;;;2.92;;
13981;SDS011;7065;50.880;5.502;2023-09-19T00:27:39;9.90;;;2.75;;
13981;SDS011;7065;50.880;5.502;2023-09-19T00:30:08;9.43;;;2.65;;
13981;SDS011;7065;50.880;5.502;2023-09-19T00:32:39;9.60;;;2.80;;
13981;SDS011;7065;50.880;5.502;2023-09-19T00:35:06;8.02;;;2.83;;
13981;SDS011;7065;50.880;5.502;2023-09-19T00:37:34;7.22;;;2.45;;
13981;SDS011;7065;50.880;5.502;2023-09-19T00:40:00;9.95;;;3.03;;
13981;SDS011;7065;50.880;5.502;2023-09-19T00:42:28;11.77;;;2.47;;
13981;SDS011;7065;50.880;5.502;2023-09-19T00:44:53;11.43;;;2.42;;
13981;SDS011;7065;50.880;5.502;2023-09-19T00:47:19;11.07;;;2.78;;
13981;SDS011;7065;50.880;5.502;2023-09-19T00:49:45;6.88;;;2.28;;
13981;SDS011;7065;50.880;5.502;2023-09-19T00:52:14;6.63;;;2.20;;
13981;SDS011;7065;50.880;5.502;2023-09-19T00:54:41;7.28;;;2.28;;
13981;SDS011;7065;50.880;5.502;2023-09-19T00:57:06;11.52;;;2.30;;
13981;SDS011;7065;50.880;5.502;2023-09-19T00:59:34;9.50;;;2.35;;
13981;SDS011;7065;50.880;5.502;2023-09-19T01:02:01;8.32;;;2.20;;
13981;SDS011;7065;50.880;5.502;2023-09-19T01:04:28;7.95;;;2.45;;
13981;SDS011;7065;50.880;5.502;2023-09-19T01:06:54;9.80;;;2.60;;
13981;SDS011;7065;50.880;5.502;2023-09-19T01:09:20;9.75;;;2.85;;
13981;SDS011;7065;50.880;5.502;2023-09-19T01:11:47;9.48;;;2.70;;
13981;SDS011;7065;50.880;5.502;2023-09-19T01:14:37;9.55;;;2.28;;
13981;SDS011;7065;50.880;5.502;2023-09-19T01:17:32;10.43;;;2.13;;
13981;SDS011;7065;50.880;5.502;2023-09-19T01:31:06;10.75;;;2.90;;
13981;SDS011;7065;50.880;5.502;2023-09-19T01:33:53;7.68;;;2.30;;
13981;SDS011;7065;50.880;5.502;2023-09-19T01:36:22;9.85;;;2.53;;
13981;SDS011;7065;50.880;5.502;2023-09-19T01:38:49;8.57;;;2.70;;
13981;SDS011;7065;50.880;5.502;2023-09-19T01:41:17;8.85;;;2.67;;
13981;SDS011;7065;50.880;5.502;2023-09-19T01:43:52;8.27;;;2.50;;
13981;SDS011;7065;50.880;5.502;2023-09-19T01:46:21;10.90;;;2.60;;
13981;SDS011;7065;50.880;5.502;2023-09-19T01:52:07;10.52;;;2.50;;
13981;SDS011;7065;50.880;5.502;2023-09-19T01:54:48;12.13;;;3.22;;
13981;SDS011;7065;50.880;5.502;2023-09-19T01:57:29;8.70;;;2.22;;
13981;SDS011;7065;50.880;5.502;2023-09-19T02:00:01;9.32;;;3.22;;
13981;SDS011;7065;50.880;5.502;2023-09-19T02:02:38;10.55;;;3.20;;
13981;SDS011;7065;50.880;5.502;2023-09-19T02:05:05;9.10;;;2.65;;
13981;SDS011;7065;50.880;5.502;2023-09-19T02:07:31;9.63;;;2.47;;
13981;SDS011;7065;50.880;5.502;2023-09-19T02:09:58;9.13;;;2.75;;
13981;SDS011;7065;50.880;5.502;2023-09-19T02:12:30;6.72;;;2.42;;
13981;SDS011;7065;50.880;5.502;2023-09-19T02:14:56;10.20;;;2.28;;
13981;SDS011;7065;50.880;5.502;2023-09-19T02:17:22;6.88;;;2.55;;
13981;SDS011;7065;50.880;5.502;2023-09-19T02:19:51;7.78;;;2.65;;
13981;SDS011;7065;50.880;5.502;2023-09-19T02:22:18;12.80;;;2.80;;
13981;SDS011;7065;50.880;5.502;2023-09-19T02:24:44;9.10;;;2.65;;
13981;SDS011;7065;50.880;5.502;2023-09-19T02:27:13;9.85;;;2.95;;
13981;SDS011;7065;50.880;5.502;2023-09-19T02:29:41;9.60;;;2.58;;
13981;SDS011;7065;50.880;5.502;2023-09-19T02:32:07;11.10;;;2.72;;
13981;SDS011;7065;50.880;5.502;2023-09-19T02:34:34;10.73;;;2.80;;
13981;SDS011;7065;50.880;5.502;2023-09-19T02:37:01;9.02;;;2.80;;
13981;SDS011;7065;50.880;5.502;2023-09-19T02:39:31;8.27;;;2.55;;
13981;SDS011;7065;50.880;5.502;2023-09-19T02:41:57;12.18;;;3.42;;
13981;SDS011;7065;50.880;5.502;2023-09-19T02:44:23;10.23;;;3.10;;
13981;SDS011;7065;50.880;5.502;2023-09-19T02:46:49;12.65;;;2.88;;
13981;SDS011;7065;50.880;5.502;2023-09-19T02:49:15;9.98;;;2.80;;
13981;SDS011;7065;50.880;5.502;2023-09-19T02:51:42;13.07;;;2.90;;
13981;SDS011;7065;50.880;5.502;2023-09-19T02:54:08;10.70;;;2.80;;
13981;SDS011;7065;50.880;5.502;2023-09-19T02:56:35;10.55;;;2.92;;
13981;SDS011;7065;50.880;5.502;2023-09-19T02:59:01;10.90;;;2.63;;
13981;SDS011;7065;50.880;5.502;2023-09-19T03:01:27;9.52;;;2.50;;
13981;SDS011;7065;50.880;5.502;2023-09-19T03:03:53;8.10;;;2.83;;
13981;SDS011;7065;50.880;5.502;2023-09-19T03:06:19;9.45;;;2.55;;
13981;SDS011;7065;50.880;5.502;2023-09-19T03:08:46;11.35;;;3.30;;
13981;SDS011;7065;50.880;5.502;2023-09-19T03:11:14;12.23;;;2.80;;
13981;SDS011;7065;50.880;5.502;2023-09-19T03:13:41;12.32;;;3.10;;
13981;SDS011;7065;50.880;5.502;2023-09-19T03:16:07;10.20;;;3.10;;
13981;SDS011;7065;50.880;5.502;2023-09-19T03:18:34;9.88;;;2.80;;
13981;SDS011;7065;50.880;5.502;2023-09-19T03:21:00;7.00;;;2.90;;
13981;SDS011;7065;50.880;5.502;2023-09-19T03:23:26;13.57;;;3.00;;
13981;SDS011;7065;50.880;5.502;2023-09-19T03:25:54;7.28;;;2.50;;
13981;SDS011;7065;50.880;5.502;2023-09-19T03:28:20;8.45;;;2.40;;
13981;SDS011;7065;50.880;5.502;2023-09-19T03:31:01;8.38;;;3.35;;
13981;SDS011;7065;50.880;5.502;2023-09-19T03:33:27;12.50;;;2.90;;
13981;SDS011;7065;50.880;5.502;2023-09-19T03:35:53;11.65;;;3.40;;
13981;SDS011;7065;50.880;5.502;2023-09-19T03:38:19;10.13;;;2.92;;
13981;SDS011;7065;50.880;5.502;2023-09-19T03:40:47;14.25;;;3.03;;
13981;SDS011;7065;50.880;5.502;2023-09-19T03:43:13;12.35;;;3.17;;
13981;SDS011;7065;50.880;5.502;2023-09-19T03:45:39;10.48;;;2.58;;
13981;SDS011;7065;50.880;5.502;2023-09-19T03:48:09;11.50;;;2.70;;
13981;SDS011;7065;50.880;5.502;2023-09-19T03:50:35;14.45;;;2.80;;
13981;SDS011;7065;50.880;5.502;2023-09-19T03:53:02;10.18;;;2.83;;
13981;SDS011;7065;50.880;5.502;2023-09-19T03:55:28;10.95;;;2.90;;
13981;SDS011;7065;50.880;5.502;2023-09-19T03:57:57;8.80;;;2.78;;
13981;SDS011;7065;50.880;5.502;2023-09-19T04:00:23;14.35;;;3.15;;
13981;SDS011;7065;50.880;5.502;2023-09-19T04:02:51;10.63;;;2.67;;
13981;SDS011;7065;50.880;5.502;2023-09-19T04:05:17;9.23;;;2.70;;
13981;SDS011;7065;50.880;5.502;2023-09-19T04:07:43;12.07;;;3.17;;
13981;SDS011;7065;50.880;5.502;2023-09-19T04:10:09;7.47;;;2.47;;
13981;SDS011;7065;50.880;5.502;2023-09-19T04:12:39;15.27;;;2.67;;
13981;SDS011;7065;50.880;5.502;2023-09-19T04:15:05;9.93;;;2.75;;
13981;SDS011;7065;50.880;5.502;2023-09-19T04:17:32;13.48;;;2.80;;
13981;SDS011;7065;50.880;5.502;2023-09-19T04:20:00;11.82;;;2.92;;
13981;SDS011;7065;50.880;5.502;2023-09-19T04:22:26;11.48;;;3.30;;
13981;SDS011;7065;50.880;5.502;2023-09-19T04:24:52;13.40;;;3.03;;
13981;SDS011;7065;50.880;5.502;2023-09-19T04:27:17;16.35;;;3.08;;
13981;SDS011;7065;50.880;5.502;2023-09-19T04:29:44;7.57;;;2.30;;
13981;SDS011;7065;50.880;5.502;2023-09-19T04:32:09;12.55;;;3.17;;
13981;SDS011;7065;50.880;5.502;2023-09-19T04:34:38;12.63;;;2.97;;
13981;SDS011;7065;50.880;5.502;2023-09-19T04:37:03;8.10;;;2.50;;
13981;SDS011;7065;50.880;5.502;2023-09-19T04:39:29;13.07;;;3.15;;
13981;SDS011;7065;50.880;5.502;2023-09-19T04:41:55;9.93;;;2.42;;
13981;SDS011;7065;50.880;5.502;2023-09-19T04:44:22;11.57;;;2.33;;
13981;SDS011;7065;50.880;5.502;2023-09-19T04:46:47;9.38;;;2.58;;
13981;SDS011;7065;50.880;5.502;2023-09-19T04:49:13;12.05;;;2.90;;
13981;SDS011;7065;50.880;5.502;2023-09-19T04:51:39;11.18;;;2.72;;
13981;SDS011;7065;50.880;5.502;2023-09-19T04:54:05;8.77;;;2.53;;
13981;SDS011;7065;50.880;5.502;2023-09-19T04:56:31;9.93;;;2.75;;
13981;SDS011;7065;50.880;5.502;2023-09-19T04:58:58;10.77;;;2.65;;
13981;SDS011;7065;50.880;5.502;2023-09-19T05:01:27;11.43;;;2.10;;
13981;SDS011;7065;50.880;5.502;2023-09-19T05:03:53;9.82;;;2.55;;
13981;SDS011;7065;50.880;5.502;2023-09-19T05:06:19;10.35;;;2.92;;
13981;SDS011;7065;50.880;5.502;2023-09-19T05:08:48;9.05;;;2.38;;
13981;SDS011;7065;50.880;5.502;2023-09-19T05:11:18;11.60;;;2.60;;
13981;SDS011;7065;50.880;5.502;2023-09-19T05:13:45;11.02;;;2.28;;
13981;SDS011;7065;50.880;5.502;2023-09-19T05:16:11;10.45;;;2.53;;
13981;SDS011;7065;50.880;5.502;2023-09-19T05:18:37;10.45;;;2.47;;
13981;SDS011;7065;50.880;5.502;2023-09-19T05:21:02;9.07;;;2.58;;
13981;SDS011;7065;50.880;5.502;2023-09-19T05:23:29;10.23;;;2.65;;
13981;SDS011;7065;50.880;5.502;2023-09-19T05:25:56;9.73;;;2.80;;
13981;SDS011;7065;50.880;5.502;2023-09-19T05:28:23;7.60;;;2.35;;
13981;SDS011;7065;50.880;5.502;2023-09-19T05:30:49;12.25;;;3.13;;
13981;SDS011;7065;50.880;5.502;2023-09-19T05:33:15;8.70;;;2.33;;
13981;SDS011;7065;50.880;5.502;2023-09-19T05:35:40;6.00;;;2.38;;
13981;SDS011;7065;50.880;5.502;2023-09-19T05:38:07;7.38;;;2.33;;
13981;SDS011;7065;50.880;5.502;2023-09-19T05:40:38;12.20;;;2.50;;
13981;SDS011;7065;50.880;5.502;2023-09-19T05:43:07;10.60;;;2.78;;
13981;SDS011;7065;50.880;5.502;2023-09-19T05:45:33;8.32;;;2.45;;
13981;SDS011;7065;50.880;5.502;2023-09-19T05:48:10;12.27;;;3.00;;
13981;SDS011;7065;50.880;5.502;2023-09-19T05:50:39;9.65;;;2.72;;
13981;SDS011;7065;50.880;5.502;2023-09-19T05:53:06;12.82;;;3.10;;
13981;SDS011;7065;50.880;5.502;2023-09-19T05:55:32;8.18;;;2.45;;
13981;SDS011;7065;50.880;5.502;2023-09-19T05:57:58;11.77;;;3.35;;
13981;SDS011;7065;50.880;5.502;2023-09-19T06:00:24;12.45;;;3.58;;
13981;SDS011;7065;50.880;5.502;2023-09-19T06:02:56;8.30;;;2.42;;
13981;SDS011;7065;50.880;5.502;2023-09-19T06:05:23;11.50;;;3.13;;
13981;SDS011;7065;50.880;5.502;2023-09-19T06:07:49;13.80;;;2.83;;
13981;SDS011;7065;50.880;5.502;2023-09-19T06:10:15;9.63;;;2.63;;
13981;SDS011;7065;50.880;5.502;2023-09-19T06:12:42;8.35;;;2.85;;
13981;SDS011;7065;50.880;5.502;2023-09-19T06:15:12;7.22;;;2.50;;
13981;SDS011;7065;50.880;5.502;2023-09-19T06:17:47;6.05;;;2.35;;
13981;SDS011;7065;50.880;5.502;2023-09-19T06:20:14;8.98;;;2.38;;
13981;SDS011;7065;50.880;5.502;2023-09-19T06:22:44;8.90;;;2.78;;
13981;SDS011;7065;50.880;5.502;2023-09-19T06:25:11;8.77;;;2.72;;
13981;SDS011;7065;50.880;5.502;2023-09-19T06:27:40;11.48;;;2.33;;
13981;SDS011;7065;50.880;5.502;2023-09-19T06:30:08;11.68;;;2.90;;
13981;SDS011;7065;50.880;5.502;2023-09-19T06:32:36;7.53;;;2.70;;
13981;SDS011;7065;50.880;5.502;2023-09-19T06:35:02;7.85;;;2.70;;
13981;SDS011;7065;50.880;5.502;2023-09-19T06:37:28;9.43;;;2.70;;
13981;SDS011;7065;50.880;5.502;2023-09-19T06:39:54;9.98;;;2.88;;
13981;SDS011;7065;50.880;5.502;2023-09-19T06:42:21;12.00;;;2.92;;
13981;SDS011;7065;50.880;5.502;2023-09-19T06:44:48;6.20;;;2.13;;
13981;SDS011;7065;50.880;5.502;2023-09-19T06:47:14;12.88;;;2.80;;
13981;SDS011;7065;50.880;5.502;2023-09-19T06:49:41;7.50;;;2.40;;
13981;SDS011;7065;50.880;5.502;2023-09-19T06:52:09;7.75;;;2.03;;
13981;SDS011;7065;50.880;5.502;2023-09-19T06:54:35;11.15;;;2.75;;
13981;SDS011;7065;50.880;5.502;2023-09-19T06:57:01;12.20;;;2.78;;
13981;SDS011;7065;50.880;5.502;2023-09-19T06:59:27;9.68;;;2.88;;
13981;SDS011;7065;50.880;5.502;2023-09-19T07:01:53;11.98;;;3.08;;
13981;SDS011;7065;50.880;5.502;2023-09-19T07:04:19;9.05;;;2.50;;
13981;SDS011;7065;50.880;5.502;2023-09-19T07:06:48;12.75;;;2.70;;
13981;SDS011;7065;50.880;5.502;2023-09-19T07:09:15;10.93;;;2.63;;
13981;SDS011;7065;50.880;5.502;2023-09-19T07:11:41;10.05;;;2.40;;
13981;SDS011;7065;50.880;5.502;2023-09-19T07:14:07;10.02;;;2.30;;
13981;SDS011;7065;50.880;5.502;2023-09-19T07:16:36;12.35;;;3.10;;
13981;SDS011;7065;50.880;5.502;2023-09-19T07:19:04;9.23;;;2.63;;
13981;SDS011;7065;50.880;5.502;2023-09-19T07:21:30;7.95;;;2.38;;
13981;SDS011;7065;50.880;5.502;2023-09-19T07:23:59;7.07;;;2.08;;
13981;SDS011;7065;50.880;5.502;2023-09-19T07:26:25;6.35;;;2.45;;
13981;SDS011;7065;50.880;5.502;2023-09-19T07:28:53;6.55;;;2.30;;
13981;SDS011;7065;50.880;5.502;2023-09-19T07:31:19;8.02;;;2.33;;
13981;SDS011;7065;50.880;5.502;2023-09-19T07:33:45;11.70;;;2.42;;
13981;SDS011;7065;50.880;5.502;2023-09-19T07:36:11;4.60;;;2.40;;
13981;SDS011;7065;50.880;5.502;2023-09-19T07:38:38;11.20;;;2.47;;
13981;SDS011;7065;50.880;5.502;2023-09-19T07:41:05;8.23;;;2.33;;
13981;SDS011;7065;50.880;5.502;2023-09-19T07:43:31;7.93;;;2.20;;
13981;SDS011;7065;50.880;5.502;2023-09-19T07:46:02;5.85;;;2.20;;
13981;SDS011;7065;50.880;5.502;2023-09-19T07:48:37;10.27;;;2.30;;
13981;SDS011;7065;50.880;5.502;2023-09-19T07:51:07;10.65;;;2.40;;
13981;SDS011;7065;50.880;5.502;2023-09-19T07:53:34;8.70;;;2.80;;
13981;SDS011;7065;50.880;5.502;2023-09-19T07:56:08;11.45;;;2.72;;
13981;SDS011;7065;50.880;5.502;2023-09-19T07:58:35;9.27;;;2.10;;
13981;SDS011;7065;50.880;5.502;2023-09-19T08:01:06;9.77;;;2.42;;
13981;SDS011;7065;50.880;5.502;2023-09-19T08:03:33;9.27;;;2.58;;
13981;SDS011;7065;50.880;5.502;2023-09-19T08:05:59;9.30;;;2.40;;
13981;SDS011;7065;50.880;5.502;2023-09-19T08:08:26;5.97;;;2.80;;
13981;SDS011;7065;50.880;5.502;2023-09-19T08:10:53;5.75;;;2.25;;
13981;SDS011;7065;50.880;5.502;2023-09-19T08:13:21;8.82;;;2.50;;
13981;SDS011;7065;50.880;5.502;2023-09-19T08:15:51;10.48;;;2.42;;
13981;SDS011;7065;50.880;5.502;2023-09-19T08:18:20;7.40;;;2.08;;
13981;SDS011;7065;50.880;5.502;2023-09-19T08:20:51;8.73;;;2.50;;
13981;SDS011;7065;50.880;5.502;2023-09-19T08:23:17;7.25;;;2.03;;
13981;SDS011;7065;50.880;5.502;2023-09-19T08:25:45;13.50;;;2.60;;
13981;SDS011;7065;50.880;5.502;2023-09-19T08:28:11;12.18;;;2.63;;
13981;SDS011;7065;50.880;5.502;2023-09-19T08:30:39;6.63;;;1.90;;
13981;SDS011;7065;50.880;5.502;2023-09-19T08:33:06;10.45;;;2.72;;
13981;SDS011;7065;50.880;5.502;2023-09-19T08:35:32;9.27;;;2.78;;
13981;SDS011;7065;50.880;5.502;2023-09-19T08:37:58;10.77;;;2.33;;
13981;SDS011;7065;50.880;5.502;2023-09-19T08:40:29;9.95;;;2.67;;
13981;SDS011;7065;50.880;5.502;2023-09-19T08:42:58;9.52;;;2.08;;
13981;SDS011;7065;50.880;5.502;2023-09-19T08:45:25;8.82;;;2.75;;
13981;SDS011;7065;50.880;5.502;2023-09-19T08:50:49;9.50;;;2.28;;
13981;SDS011;7065;50.880;5.502;2023-09-19T08:53:51;10.38;;;2.28;;
13981;SDS011;7065;50.880;5.502;2023-09-19T08:56:24;7.68;;;2.45;;
13981;SDS011;7065;50.880;5.502;2023-09-19T08:58:55;11.40;;;2.47;;
13981;SDS011;7065;50.880;5.502;2023-09-19T09:01:24;9.93;;;2.33;;
13981;SDS011;7065;50.880;5.502;2023-09-19T09:03:57;5.47;;;2.10;;
13981;SDS011;7065;50.880;5.502;2023-09-19T09:06:24;9.68;;;2.40;;
13981;SDS011;7065;50.880;5.502;2023-09-19T09:08:50;7.47;;;2.50;;
13981;SDS011;7065;50.880;5.502;2023-09-19T09:11:19;8.60;;;2.72;;
13981;SDS011;7065;50.880;5.502;2023-09-19T09:13:46;7.60;;;2.58;;
13981;SDS011;7065;50.880;5.502;2023-09-19T09:16:13;9.70;;;2.70;;
13981;SDS011;7065;50.880;5.502;2023-09-19T09:18:43;8.35;;;2.33;;
13981;SDS011;7065;50.880;5.502;2023-09-19T09:21:10;6.75;;;2.33;;
13981;SDS011;7065;50.880;5.502;2023-09-19T09:23:36;10.60;;;2.20;;
13981;SDS011;7065;50.880;5.502;2023-09-19T09:26:03;6.90;;;2.38;;
13981;SDS011;7065;50.880;5.502;2023-09-19T09:28:31;10.85;;;2.58;;
13981;SDS011;7065;50.880;5.502;2023-09-19T09:30:58;6.45;;;2.45;;
13981;SDS011;7065;50.880;5.502;2023-09-19T09:33:27;10.88;;;2.40;;
13981;SDS011;7065;50.880;5.502;2023-09-19T09:35:54;7.05;;;2.13;;
13981;SDS011;7065;50.880;5.502;2023-09-19T09:38:42;11.05;;;2.45;;
13981;SDS011;7065;50.880;5.502;2023-09-19T09:41:10;7.47;;;2.15;;
13981;SDS011;7065;50.880;5.502;2023-09-19T09:43:40;7.85;;;2.58;;
13981;SDS011;7065;50.880;5.502;2023-09-19T09:46:16;10.23;;;2.65;;
13981;SDS011;7065;50.880;5.502;2023-09-19T09:48:46;6.88;;;1.92;;
13981;SDS011;7065;50.880;5.502;2023-09-19T09:54:12;7.28;;;2.85;;
13981;SDS011;7065;50.880;5.502;2023-09-19T09:56:52;10.18;;;2.42;;
13981;SDS011;7065;50.880;5.502;2023-09-19T09:59:51;6.47;;;2.50;;
13981;SDS011;7065;50.880;5.502;2023-09-19T10:02:29;12.25;;;2.08;;
13981;SDS011;7065;50.880;5.502;2023-09-19T10:05:17;6.68;;;2.45;;
13981;SDS011;7065;50.880;5.502;2023-09-19T10:07:53;7.07;;;2.08;;
13981;SDS011;7065;50.880;5.502;2023-09-19T10:13:11;6.45;;;2.30;;
13981;SDS011;7065;50.880;5.502;2023-09-19T10:15:43;6.55;;;2.10;;
13981;SDS011;7065;50.880;5.502;2023-09-19T10:18:24;8.57;;;2.22;;
13981;SDS011;7065;50.880;5.502;2023-09-19T10:20:53;5.57;;;2.05;;
13981;SDS011;7065;50.880;5.502;2023-09-19T10:23:20;7.00;;;2.08;;
13981;SDS011;7065;50.880;5.502;2023-09-19T10:25:50;7.65;;;2.35;;
13981;SDS011;7065;50.880;5.502;2023-09-19T10:28:17;5.45;;;2.10;;
13981;SDS011;7065;50.880;5.502;2023-09-19T10:30:47;10.05;;;2.28;;
13981;SDS011;7065;50.880;5.502;2023-09-19T10:33:18;6.80;;;2.10;;
13981;SDS011;7065;50.880;5.502;2023-09-19T10:35:46;7.47;;;2.28;;
13981;SDS011;7065;50.880;5.502;2023-09-19T10:38:15;7.88;;;2.58;;
13981;SDS011;7065;50.880;5.502;2023-09-19T10:40:50;6.47;;;2.05;;
13981;SDS011;7065;50.880;5.502;2023-09-19T10:43:18;7.13;;;2.13;;
13981;SDS011;7065;50.880;5.502;2023-09-19T10:45:46;8.82;;;2.75;;
13981;SDS011;7065;50.880;5.502;2023-09-19T10:48:17;9.07;;;2.20;;
13981;SDS011;7065;50.880;5.502;2023-09-19T10:53:32;8.13;;;2.08;;
13981;SDS011;7065;50.880;5.502;2023-09-19T10:56:34;8.75;;;2.42;;
13981;SDS011;7065;50.880;5.502;2023-09-19T10:59:12;8.73;;;2.40;;
13981;SDS011;7065;50.880;5.502;2023-09-19T11:01:53;8.25;;;2.13;;
13981;SDS011;7065;50.880;5.502;2023-09-19T11:09:46;5.95;;;2.08;;
13981;SDS011;7065;50.880;5.502;2023-09-19T11:12:37;6.22;;;1.77;;
13981;SDS011;7065;50.880;5.502;2023-09-19T11:14:58;6.90;;;1.88;;
13981;SDS011;7065;50.880;5.502;2023-09-19T11:17:31;5.85;;;1.77;;
13981;SDS011;7065;50.880;5.502;2023-09-19T11:25:59;6.25;;;2.00;;
13981;SDS011;7065;50.880;5.502;2023-09-19T11:30:37;5.57;;;1.95;;
13981;SDS011;7065;50.880;5.502;2023-09-19T11:36:11;3.78;;;1.40;;
13981;SDS011;7065;50.880;5.502;2023-09-19T11:43:47;5.43;;;1.77;;
13981;SDS011;7065;50.880;5.502;2023-09-19T11:46:15;4.68;;;1.63;;
13981;SDS011;7065;50.880;5.502;2023-09-19T11:48:47;4.32;;;1.73;;
13981;SDS011;7065;50.880;5.502;2023-09-19T11:51:24;5.68;;;1.80;;
13981;SDS011;7065;50.880;5.502;2023-09-19T11:53:55;3.80;;;1.65;;
13981;SDS011;7065;50.880;5.502;2023-09-19T11:56:27;8.13;;;1.45;;
13981;SDS011;7065;50.880;5.502;2023-09-19T11:58:54;5.22;;;1.38;;
13981;SDS011;7065;50.880;5.502;2023-09-19T12:01:22;6.57;;;1.40;;
13981;SDS011;7065;50.880;5.502;2023-09-19T12:03:56;2.20;;;1.20;;
13981;SDS011;7065;50.880;5.502;2023-09-19T12:06:23;4.00;;;1.55;;
13981;SDS011;7065;50.880;5.502;2023-09-19T12:08:54;4.85;;;1.35;;
13981;SDS011;7065;50.880;5.502;2023-09-19T12:11:23;5.60;;;1.23;;
13981;SDS011;7065;50.880;5.502;2023-09-19T12:13:50;4.32;;;1.63;;
13981;SDS011;7065;50.880;5.502;2023-09-19T12:16:18;5.28;;;1.30;;
13981;SDS011;7065;50.880;5.502;2023-09-19T12:18:49;4.00;;;1.33;;
13981;SDS011;7065;50.880;5.502;2023-09-19T12:21:28;4.60;;;1.15;;
13981;SDS011;7065;50.880;5.502;2023-09-19T12:23:58;4.25;;;1.10;;
13981;SDS011;7065;50.880;5.502;2023-09-19T12:26:27;2.45;;;0.93;;
13981;SDS011;7065;50.880;5.502;2023-09-19T12:28:54;2.85;;;1.00;;
13981;SDS011;7065;50.880;5.502;2023-09-19T12:31:21;1.95;;;1.00;;
13981;SDS011;7065;50.880;5.502;2023-09-19T12:33:52;2.88;;;1.08;;
13981;SDS011;7065;50.880;5.502;2023-09-19T12:36:20;5.35;;;1.42;;
13981;SDS011;7065;50.880;5.502;2023-09-19T12:38:56;5.63;;;1.42;;
13981;SDS011;7065;50.880;5.502;2023-09-19T12:41:25;3.55;;;1.08;;
13981;SDS011;7065;50.880;5.502;2023-09-19T12:43:52;2.72;;;1.10;;
13981;SDS011;7065;50.880;5.502;2023-09-19T12:46:22;2.33;;;0.93;;
13981;SDS011;7065;50.880;5.502;2023-09-19T12:51:45;2.45;;;0.88;;
13981;SDS011;7065;50.880;5.502;2023-09-19T12:54:12;3.28;;;1.02;;
13981;SDS011;7065;50.880;5.502;2023-09-19T12:56:44;3.33;;;1.33;;
13981;SDS011;7065;50.880;5.502;2023-09-19T12:59:13;1.35;;;0.80;;
13981;SDS011;7065;50.880;5.502;2023-09-19T13:01:42;3.55;;;1.10;;
13981;SDS011;7065;50.880;5.502;2023-09-19T13:06:51;2.47;;;1.10;;
13981;SDS011;7065;50.880;5.502;2023-09-19T13:09:18;3.92;;;0.95;;
13981;SDS011;7065;50.880;5.502;2023-09-19T13:11:59;3.10;;;1.05;;
13981;SDS011;7065;50.880;5.502;2023-09-19T13:14:28;1.70;;;0.73;;
13981;SDS011;7065;50.880;5.502;2023-09-19T13:17:01;2.25;;;0.70;;
13981;SDS011;7065;50.880;5.502;2023-09-19T13:19:44;2.88;;;0.95;;
13981;SDS011;7065;50.880;5.502;2023-09-19T13:25:18;2.95;;;1.00;;
13981;SDS011;7065;50.880;5.502;2023-09-19T13:27:45;2.03;;;0.85;;
13981;SDS011;7065;50.880;5.502;2023-09-19T13:30:21;4.53;;;1.02;;
13981;SDS011;7065;50.880;5.502;2023-09-19T13:32:48;1.77;;;0.90;;
13981;SDS011;7065;50.880;5.502;2023-09-19T13:35:14;3.30;;;1.15;;
13981;SDS011;7065;50.880;5.502;2023-09-19T13:37:41;1.85;;;0.80;;
13981;SDS011;7065;50.880;5.502;2023-09-19T13:40:08;3.20;;;1.10;;
13981;SDS011;7065;50.880;5.502;2023-09-19T13:42:40;3.03;;;1.00;;
13981;SDS011;7065;50.880;5.502;2023-09-19T13:45:06;3.85;;;1.10;;
13981;SDS011;7065;50.880;5.502;2023-09-19T13:47:33;2.58;;;1.20;;
13981;SDS011;7065;50.880;5.502;2023-09-19T13:49:59;4.43;;;0.95;;
13981;SDS011;7065;50.880;5.502;2023-09-19T13:52:26;3.22;;;1.27;;
13981;SDS011;7065;50.880;5.502;2023-09-19T13:54:55;3.05;;;1.13;;
13981;SDS011;7065;50.880;5.502;2023-09-19T13:57:27;2.83;;;0.95;;
13981;SDS011;7065;50.880;5.502;2023-09-19T13:59:54;3.15;;;1.23;;
13981;SDS011;7065;50.880;5.502;2023-09-19T14:02:20;4.15;;;1.20;;
13981;SDS011;7065;50.880;5.502;2023-09-19T14:04:49;7.40;;;1.30;;
13981;SDS011;7065;50.880;5.502;2023-09-19T14:07:16;3.13;;;0.90;;
13981;SDS011;7065;50.880;5.502;2023-09-19T14:09:43;1.95;;;0.80;;
13981;SDS011;7065;50.880;5.502;2023-09-19T14:12:09;3.80;;;1.10;;
13981;SDS011;7065;50.880;5.502;2023-09-19T14:14:34;2.55;;;1.00;;
13981;SDS011;7065;50.880;5.502;2023-09-19T14:17:00;2.90;;;0.98;;
13981;SDS011;7065;50.880;5.502;2023-09-19T14:19:26;5.72;;;1.30;;
13981;SDS011;7065;50.880;5.502;2023-09-19T14:21:53;1.38;;;0.75;;
13981;SDS011;7065;50.880;5.502;2023-09-19T14:24:21;3.22;;;0.80;;
13981;SDS011;7065;50.880;5.502;2023-09-19T14:26:48;4.03;;;1.30;;
13981;SDS011;7065;50.880;5.502;2023-09-19T14:29:14;3.88;;;1.00;;
13981;SDS011;7065;50.880;5.502;2023-09-19T14:31:41;2.90;;;0.80;;
13981;SDS011;7065;50.880;5.502;2023-09-19T14:34:08;4.07;;;0.80;;
13981;SDS011;7065;50.880;5.502;2023-09-19T14:36:37;4.53;;;1.30;;
13981;SDS011;7065;50.880;5.502;2023-09-19T14:39:03;3.08;;;1.00;;
13981;SDS011;7065;50.880;5.502;2023-09-19T14:41:30;4.80;;;1.27;;
13981;SDS011;7065;50.880;5.502;2023-09-19T14:43:56;2.75;;;0.98;;
13981;SDS011;7065;50.880;5.502;2023-09-19T14:46:22;3.35;;;1.08;;
13981;SDS011;7065;50.880;5.502;2023-09-19T14:48:50;4.95;;;0.90;;
13981;SDS011;7065;50.880;5.502;2023-09-19T14:51:16;2.70;;;0.90;;
13981;SDS011;7065;50.880;5.502;2023-09-19T14:53:44;3.55;;;1.10;;
13981;SDS011;7065;50.880;5.502;2023-09-19T14:56:11;2.97;;;0.80;;
13981;SDS011;7065;50.880;5.502;2023-09-19T14:58:38;3.08;;;1.00;;
13981;SDS011;7065;50.880;5.502;2023-09-19T15:01:05;3.67;;;1.20;;
13981;SDS011;7065;50.880;5.502;2023-09-19T15:03:32;3.05;;;0.90;;
13981;SDS011;7065;50.880;5.502;2023-09-19T15:05:59;4.70;;;1.17;;
13981;SDS011;7065;50.880;5.502;2023-09-19T15:08:31;3.95;;;1.05;;
13981;SDS011;7065;50.880;5.502;2023-09-19T15:11:00;4.40;;;1.38;;
13981;SDS011;7065;50.880;5.502;2023-09-19T15:13:29;3.42;;;1.20;;
13981;SDS011;7065;50.880;5.502;2023-09-19T15:16:00;3.20;;;1.02;;
13981;SDS011;7065;50.880;5.502;2023-09-19T15:18:27;3.50;;;1.23;;
13981;SDS011;7065;50.880;5.502;2023-09-19T15:20:53;5.38;;;1.30;;
13981;SDS011;7065;50.880;5.502;2023-09-19T15:23:19;4.88;;;1.15;;
13981;SDS011;7065;50.880;5.502;2023-09-19T15:25:48;5.55;;;1.45;;
13981;SDS011;7065;50.880;5.502;2023-09-19T15:28:14;4.15;;;1.25;;
13981;SDS011;7065;50.880;5.502;2023-09-19T15:30:40;3.85;;;1.00;;
13981;SDS011;7065;50.880;5.502;2023-09-19T15:33:06;2.40;;;1.33;;
13981;SDS011;7065;50.880;5.502;2023-09-19T15:35:32;3.80;;;1.40;;
13981;SDS011;7065;50.880;5.502;2023-09-19T15:37:58;3.47;;;1.20;;
13981;SDS011;7065;50.880;5.502;2023-09-19T15:40:26;2.92;;;1.20;;
13981;SDS011;7065;50.880;5.502;2023-09-19T15:42:52;3.47;;;1.48;;
13981;SDS011;7065;50.880;5.502;2023-09-19T15:45:19;3.00;;;1.20;;
13981;SDS011;7065;50.880;5.502;2023-09-19T15:47:45;5.45;;;1.48;;
13981;SDS011;7065;50.880;5.502;2023-09-19T15:50:11;3.20;;;1.48;;
13981;SDS011;7065;50.880;5.502;2023-09-19T15:52:40;4.57;;;1.23;;
13981;SDS011;7065;50.880;5.502;2023-09-19T15:55:06;2.00;;;1.08;;
13981;SDS011;7065;50.880;5.502;2023-09-19T15:57:32;4.70;;;1.13;;
13981;SDS011;7065;50.880;5.502;2023-09-19T15:59:59;3.70;;;1.27;;
13981;SDS011;7065;50.880;5.502;2023-09-19T16:02:25;3.50;;;1.25;;